Auxvasse, MO (65231)

10:03 PM CDT on July 29, 2016 (GMT -0500)
Near Lakeview Lake | | Change Station

Elev 817 ft 39.16 °N, 91.89 °W | Updated 5 seconds ago

Clear
Clear
73.4 °F
Feels Like 74 °F
N
0.0
Wind Variable Wind from WNW
Gusts 0.0 mph

Today
High -- | Low -- °F
--% Chance of Precip.
Yesterday
High -- | Low -- °F
Precip. -- in
Pressure 29.95 in
Visibility 10.0 miles
Clouds Clear
Heat Index 74 °F
Dew Point 67 °F
Humidity 80%
Rainfall 0.00 in
Snow Depth Not available.
6:06 AM 8:21 PM
Waning Crescent, 17% visible
METAR KCOU 300254Z AUTO 03004KT 10SM CLR 23/18 A2997 RMK AO2 SLP140 T02280183 53007
Pressure 29.95 in
Visibility 10.0 miles
Clouds Clear
Heat Index 74 °F
Dew Point 67 °F
Humidity 80%
Rainfall 0.00 in
Snow Depth Not available.
6:06 AM 8:21 PM
Waning Crescent, 17% visible
METAR KCOU 300254Z AUTO 03004KT 10SM CLR 23/18 A2997 RMK AO2 SLP140 T02280183 53007

10-Day Weather Forecast

Almanac

Astronomy

Jul. 29, 2016 Rise Set
Actual Time
Civil Twilight
Nautical Twilight
Astronomical Twilight
Moon
Length of Visible Light
Length of Day
Tomorrow will be .
, % of the Moon is Illuminated

Today's Extremes

State Highs State Lows

Community

WunderPhotos

Upload Photos

1,928,492 photos uploaded!

WunderBlog® & News

Nearby

Air Quality

  Air Quality AQ Index Pollutant
Not available.

Snow Depth

Station Depth Elevation

Earthquake Activity

City Distance Mag. Time & Date
Minimum magnitude displayed is 2.5.

Coastal Water Temperatures

Place Temperature

Stations

Nearby Weather Stations

Station Location Temp. Windchill Dew Point Humidity Wind Precip. Elev Updated Type
                   

Watches & Warnings

There are currently no watches in effect.